sensor_id;sensor_type;location;lat;lon;timestamp;pressure;altitude;pressure_sealevel;temperature;humidity
64230;BME280;50547;49.498;0.092;2022-10-16T00:01:44;1007;;;16.54;78.98
64230;BME280;50547;49.498;0.092;2022-10-16T00:04:13;1007;;;16.58;78.80
64230;BME280;50547;49.498;0.092;2022-10-16T00:06:42;1007;;;16.49;78.84
64230;BME280;50547;49.498;0.092;2022-10-16T00:09:11;1007;;;16.53;78.75
64230;BME280;50547;49.498;0.092;2022-10-16T00:11:41;1006;;;16.55;78.37
64230;BME280;50547;49.498;0.092;2022-10-16T00:14:13;1007;;;16.50;78.44
64230;BME280;50547;49.498;0.092;2022-10-16T00:16:42;1007;;;16.53;79.14
64230;BME280;50547;49.498;0.092;2022-10-16T00:19:11;1007;;;16.59;78.53
64230;BME280;50547;49.498;0.092;2022-10-16T00:21:41;1007;;;16.62;78.94
64230;BME280;50547;49.498;0.092;2022-10-16T00:24:10;1007;;;16.56;79.12
64230;BME280;50547;49.498;0.092;2022-10-16T00:26:40;1007;;;16.57;79.13
64230;BME280;50547;49.498;0.092;2022-10-16T00:29:09;1007;;;16.53;79.33
64230;BME280;50547;49.498;0.092;2022-10-16T00:31:38;1007;;;16.50;79.02
64230;BME280;50547;49.498;0.092;2022-10-16T00:34:07;1007;;;16.49;79.46
64230;BME280;50547;49.498;0.092;2022-10-16T00:36:36;1007;;;16.53;79.12
64230;BME280;50547;49.498;0.092;2022-10-16T00:39:05;1007;;;16.51;79.03
64230;BME280;50547;49.498;0.092;2022-10-16T00:41:34;1007;;;16.50;79.31
64230;BME280;50547;49.498;0.092;2022-10-16T00:44:42;1007;;;16.46;79.43
64230;BME280;50547;49.498;0.092;2022-10-16T00:47:17;1007;;;16.47;79.10
64230;BME280;50547;49.498;0.092;2022-10-16T00:49:50;1007;;;16.46;79.01
64230;BME280;50547;49.498;0.092;2022-10-16T00:52:19;1007;;;16.44;78.76
64230;BME280;50547;49.498;0.092;2022-10-16T00:54:49;1007;;;16.49;78.57
64230;BME280;50547;49.498;0.092;2022-10-16T00:57:20;1007;;;16.42;79.12
64230;BME280;50547;49.498;0.092;2022-10-16T00:59:50;1007;;;16.47;78.80
64230;BME280;50547;49.498;0.092;2022-10-16T01:02:19;1007;;;16.38;79.16
64230;BME280;50547;49.498;0.092;2022-10-16T01:04:50;1007;;;16.38;79.11
64230;BME280;50547;49.498;0.092;2022-10-16T01:07:30;1007;;;16.43;79.02
64230;BME280;50547;49.498;0.092;2022-10-16T01:10:08;1007;;;16.46;79.01
64230;BME280;50547;49.498;0.092;2022-10-16T01:12:42;1007;;;16.40;79.27
64230;BME280;50547;49.498;0.092;2022-10-16T01:15:18;1007;;;16.38;79.86
64230;BME280;50547;49.498;0.092;2022-10-16T01:17:58;1007;;;16.38;79.72
64230;BME280;50547;49.498;0.092;2022-10-16T01:20:31;1007;;;16.45;79.13
64230;BME280;50547;49.498;0.092;2022-10-16T01:23:07;1007;;;16.39;79.43
64230;BME280;50547;49.498;0.092;2022-10-16T01:25:52;1007;;;16.41;79.18
64230;BME280;50547;49.498;0.092;2022-10-16T01:28:29;1007;;;16.41;79.44
64230;BME280;50547;49.498;0.092;2022-10-16T01:31:01;1007;;;16.44;79.40
64230;BME280;50547;49.498;0.092;2022-10-16T01:33:35;1007;;;16.45;79.76
64230;BME280;50547;49.498;0.092;2022-10-16T01:36:10;1007;;;16.48;78.92
64230;BME280;50547;49.498;0.092;2022-10-16T01:38:43;1007;;;16.44;79.54
64230;BME280;50547;49.498;0.092;2022-10-16T01:41:17;1007;;;16.49;79.29
64230;BME280;50547;49.498;0.092;2022-10-16T01:43:53;1007;;;16.49;79.15
64230;BME280;50547;49.498;0.092;2022-10-16T01:46:26;1007;;;16.46;79.57
64230;BME280;50547;49.498;0.092;2022-10-16T01:48:56;1007;;;16.40;79.78
64230;BME280;50547;49.498;0.092;2022-10-16T01:51:27;1007;;;16.43;79.60
64230;BME280;50547;49.498;0.092;2022-10-16T01:54:00;1007;;;16.45;79.30
64230;BME280;50547;49.498;0.092;2022-10-16T01:56:30;1007;;;16.44;79.64
64230;BME280;50547;49.498;0.092;2022-10-16T01:59:03;1007;;;16.42;79.62
64230;BME280;50547;49.498;0.092;2022-10-16T02:01:35;1007;;;16.45;79.42
64230;BME280;50547;49.498;0.092;2022-10-16T02:04:11;1007;;;16.38;79.78
64230;BME280;50547;49.498;0.092;2022-10-16T02:06:42;1007;;;16.33;79.70
64230;BME280;50547;49.498;0.092;2022-10-16T02:09:11;1007;;;16.28;80.11
64230;BME280;50547;49.498;0.092;2022-10-16T02:11:40;1007;;;16.31;79.82
64230;BME280;50547;49.498;0.092;2022-10-16T02:14:09;1007;;;16.32;79.98
64230;BME280;50547;49.498;0.092;2022-10-16T02:16:40;1007;;;16.24;80.13
64230;BME280;50547;49.498;0.092;2022-10-16T02:19:10;1007;;;16.30;79.82
64230;BME280;50547;49.498;0.092;2022-10-16T02:21:44;1007;;;16.40;79.40
64230;BME280;50547;49.498;0.092;2022-10-16T02:24:19;1007;;;16.25;79.43
64230;BME280;50547;49.498;0.092;2022-10-16T02:26:57;1007;;;16.29;79.72
64230;BME280;50547;49.498;0.092;2022-10-16T02:29:27;1007;;;16.30;79.81
64230;BME280;50547;49.498;0.092;2022-10-16T02:32:00;1007;;;16.29;79.78
64230;BME280;50547;49.498;0.092;2022-10-16T02:34:32;1007;;;16.29;79.57
64230;BME280;50547;49.498;0.092;2022-10-16T02:37:03;1007;;;16.24;80.02
64230;BME280;50547;49.498;0.092;2022-10-16T02:39:33;1007;;;16.20;80.35
64230;BME280;50547;49.498;0.092;2022-10-16T02:42:03;1007;;;16.21;80.14
64230;BME280;50547;49.498;0.092;2022-10-16T02:44:32;1007;;;16.19;80.22
64230;BME280;50547;49.498;0.092;2022-10-16T02:47:01;1007;;;16.16;80.18
64230;BME280;50547;49.498;0.092;2022-10-16T02:49:30;1007;;;16.14;80.40
64230;BME280;50547;49.498;0.092;2022-10-16T02:51:59;1007;;;16.23;79.94
64230;BME280;50547;49.498;0.092;2022-10-16T02:54:28;1007;;;16.15;80.44
64230;BME280;50547;49.498;0.092;2022-10-16T02:56:57;1007;;;16.14;80.52
64230;BME280;50547;49.498;0.092;2022-10-16T02:59:26;1007;;;16.11;80.61
64230;BME280;50547;49.498;0.092;2022-10-16T03:01:55;1007;;;16.08;80.68
64230;BME280;50547;49.498;0.092;2022-10-16T03:04:24;1008;;;16.00;80.93
64230;BME280;50547;49.498;0.092;2022-10-16T03:06:53;1008;;;15.95;80.88
64230;BME280;50547;49.498;0.092;2022-10-16T03:09:22;1008;;;15.94;81.35
64230;BME280;50547;49.498;0.092;2022-10-16T03:11:51;1008;;;15.87;82.20
64230;BME280;50547;49.498;0.092;2022-10-16T03:14:21;1008;;;15.88;81.53
64230;BME280;50547;49.498;0.092;2022-10-16T03:16:50;1008;;;15.96;80.92
64230;BME280;50547;49.498;0.092;2022-10-16T03:19:19;1008;;;16.04;80.34
64230;BME280;50547;49.498;0.092;2022-10-16T03:21:48;1008;;;15.96;81.02
64230;BME280;50547;49.498;0.092;2022-10-16T03:24:17;1008;;;15.93;80.99
64230;BME280;50547;49.498;0.092;2022-10-16T03:26:46;1008;;;16.02;81.03
64230;BME280;50547;49.498;0.092;2022-10-16T03:29:15;1008;;;15.99;80.80
64230;BME280;50547;49.498;0.092;2022-10-16T03:31:44;1008;;;15.96;82.05
64230;BME280;50547;49.498;0.092;2022-10-16T03:34:13;1008;;;15.93;82.01
64230;BME280;50547;49.498;0.092;2022-10-16T03:36:42;1008;;;15.93;81.56
64230;BME280;50547;49.498;0.092;2022-10-16T03:39:11;1008;;;15.98;81.39
64230;BME280;50547;49.498;0.092;2022-10-16T03:41:40;1008;;;15.93;81.70
64230;BME280;50547;49.498;0.092;2022-10-16T03:44:09;1008;;;16.02;81.29
64230;BME280;50547;49.498;0.092;2022-10-16T03:46:38;1008;;;16.01;81.32
64230;BME280;50547;49.498;0.092;2022-10-16T03:49:08;1008;;;15.99;81.35
64230;BME280;50547;49.498;0.092;2022-10-16T03:51:36;1008;;;15.94;81.63
64230;BME280;50547;49.498;0.092;2022-10-16T03:54:06;1008;;;15.96;81.54
64230;BME280;50547;49.498;0.092;2022-10-16T03:56:34;1008;;;15.99;81.27
64230;BME280;50547;49.498;0.092;2022-10-16T03:59:04;1008;;;15.94;81.08
64230;BME280;50547;49.498;0.092;2022-10-16T04:01:33;1008;;;15.94;81.34
64230;BME280;50547;49.498;0.092;2022-10-16T04:04:02;1008;;;15.90;81.56
64230;BME280;50547;49.498;0.092;2022-10-16T04:06:31;1008;;;15.99;81.25
64230;BME280;50547;49.498;0.092;2022-10-16T04:09:00;1008;;;16.03;81.11
64230;BME280;50547;49.498;0.092;2022-10-16T04:11:29;1008;;;15.99;81.89
64230;BME280;50547;49.498;0.092;2022-10-16T04:13:58;1008;;;15.93;81.71
64230;BME280;50547;49.498;0.092;2022-10-16T04:16:27;1008;;;16.01;81.73
64230;BME280;50547;49.498;0.092;2022-10-16T04:18:56;1008;;;15.97;81.83
64230;BME280;50547;49.498;0.092;2022-10-16T04:21:25;1008;;;16.00;81.76
64230;BME280;50547;49.498;0.092;2022-10-16T04:23:54;1008;;;16.04;81.39
64230;BME280;50547;49.498;0.092;2022-10-16T04:26:23;1008;;;16.07;81.37
64230;BME280;50547;49.498;0.092;2022-10-16T04:28:52;1008;;;16.13;81.08
64230;BME280;50547;49.498;0.092;2022-10-16T04:31:21;1008;;;16.12;80.67
64230;BME280;50547;49.498;0.092;2022-10-16T04:33:50;1008;;;16.09;81.00
64230;BME280;50547;49.498;0.092;2022-10-16T04:36:19;1008;;;16.12;80.87
64230;BME280;50547;49.498;0.092;2022-10-16T04:38:48;1008;;;16.04;81.26
64230;BME280;50547;49.498;0.092;2022-10-16T04:41:17;1008;;;16.05;81.03
64230;BME280;50547;49.498;0.092;2022-10-16T04:43:46;1008;;;15.96;81.46
64230;BME280;50547;49.498;0.092;2022-10-16T04:46:15;1008;;;16.07;80.57
64230;BME280;50547;49.498;0.092;2022-10-16T04:48:44;1008;;;16.00;80.83
64230;BME280;50547;49.498;0.092;2022-10-16T04:51:13;1008;;;16.00;80.69
64230;BME280;50547;49.498;0.092;2022-10-16T04:53:42;1008;;;16.03;80.56
64230;BME280;50547;49.498;0.092;2022-10-16T04:56:09;1008;;;16.03;80.70
64230;BME280;50547;49.498;0.092;2022-10-16T04:58:38;1008;;;16.03;80.64
64230;BME280;50547;49.498;0.092;2022-10-16T05:01:07;1008;;;16.01;80.70
64230;BME280;50547;49.498;0.092;2022-10-16T05:03:36;1008;;;16.10;80.40
64230;BME280;50547;49.498;0.092;2022-10-16T05:06:06;1008;;;16.05;80.82
64230;BME280;50547;49.498;0.092;2022-10-16T05:08:35;1008;;;16.09;80.61
64230;BME280;50547;49.498;0.092;2022-10-16T05:11:04;1008;;;16.22;80.12
64230;BME280;50547;49.498;0.092;2022-10-16T05:13:33;1008;;;16.18;80.31
64230;BME280;50547;49.498;0.092;2022-10-16T05:16:02;1008;;;16.10;80.55
64230;BME280;50547;49.498;0.092;2022-10-16T05:18:31;1008;;;16.11;80.72
64230;BME280;50547;49.498;0.092;2022-10-16T05:21:00;1008;;;16.21;80.14
64230;BME280;50547;49.498;0.092;2022-10-16T05:23:29;1009;;;16.11;80.34
64230;BME280;50547;49.498;0.092;2022-10-16T05:25:59;1009;;;16.03;80.80
64230;BME280;50547;49.498;0.092;2022-10-16T05:28:29;1009;;;15.86;81.59
64230;BME280;50547;49.498;0.092;2022-10-16T05:30:58;1009;;;15.87;81.36
64230;BME280;50547;49.498;0.092;2022-10-16T05:33:27;1009;;;15.87;81.12
64230;BME280;50547;49.498;0.092;2022-10-16T05:35:56;1009;;;15.99;80.73
64230;BME280;50547;49.498;0.092;2022-10-16T05:38:25;1009;;;16.02;80.49
64230;BME280;50547;49.498;0.092;2022-10-16T05:40:54;1009;;;16.00;81.00
64230;BME280;50547;49.498;0.092;2022-10-16T05:43:23;1009;;;15.97;81.10
64230;BME280;50547;49.498;0.092;2022-10-16T05:45:55;1009;;;16.07;80.67
64230;BME280;50547;49.498;0.092;2022-10-16T05:48:24;1009;;;15.98;81.40
64230;BME280;50547;49.498;0.092;2022-10-16T05:50:58;1009;;;15.98;81.30
64230;BME280;50547;49.498;0.092;2022-10-16T05:53:28;1009;;;15.95;81.55
64230;BME280;50547;49.498;0.092;2022-10-16T05:55:58;1009;;;16.09;80.80
64230;BME280;50547;49.498;0.092;2022-10-16T05:58:29;1009;;;16.00;81.29
64230;BME280;50547;49.498;0.092;2022-10-16T06:01:00;1009;;;15.99;81.57
64230;BME280;50547;49.498;0.092;2022-10-16T06:03:29;1009;;;16.12;81.22
64230;BME280;50547;49.498;0.092;2022-10-16T06:05:59;1009;;;16.12;80.72
64230;BME280;50547;49.498;0.092;2022-10-16T06:08:27;1009;;;16.12;80.82
64230;BME280;50547;49.498;0.092;2022-10-16T06:11:01;1009;;;16.11;80.79
64230;BME280;50547;49.498;0.092;2022-10-16T06:13:30;1009;;;16.16;80.58
64230;BME280;50547;49.498;0.092;2022-10-16T06:16:00;1009;;;16.18;80.35
64230;BME280;50547;49.498;0.092;2022-10-16T06:18:29;1009;;;16.20;80.45
64230;BME280;50547;49.498;0.092;2022-10-16T06:20:58;1009;;;16.13;80.63
64230;BME280;50547;49.498;0.092;2022-10-16T06:23:28;1009;;;16.02;80.87
64230;BME280;50547;49.498;0.092;2022-10-16T06:26:04;1009;;;16.10;80.30
64230;BME280;50547;49.498;0.092;2022-10-16T06:28:33;1009;;;16.10;80.29
64230;BME280;50547;49.498;0.092;2022-10-16T06:31:05;1009;;;16.18;79.89
64230;BME280;50547;49.498;0.092;2022-10-16T06:33:34;1009;;;16.17;79.86
64230;BME280;50547;49.498;0.092;2022-10-16T06:36:05;1009;;;16.13;80.27
64230;BME280;50547;49.498;0.092;2022-10-16T06:38:35;1009;;;16.10;80.30
64230;BME280;50547;49.498;0.092;2022-10-16T06:41:06;1009;;;16.09;80.13
64230;BME280;50547;49.498;0.092;2022-10-16T06:43:35;1009;;;16.10;80.15
64230;BME280;50547;49.498;0.092;2022-10-16T06:46:06;1009;;;16.11;80.15
64230;BME280;50547;49.498;0.092;2022-10-16T06:48:35;1009;;;16.05;80.44
64230;BME280;50547;49.498;0.092;2022-10-16T06:51:06;1009;;;16.07;80.36
64230;BME280;50547;49.498;0.092;2022-10-16T06:53:39;1009;;;16.08;80.48
64230;BME280;50547;49.498;0.092;2022-10-16T06:56:10;1009;;;16.10;80.43
64230;BME280;50547;49.498;0.092;2022-10-16T06:58:40;1009;;;16.09;80.49
64230;BME280;50547;49.498;0.092;2022-10-16T07:01:11;1009;;;16.20;79.93
64230;BME280;50547;49.498;0.092;2022-10-16T07:03:42;1009;;;16.12;80.49
64230;BME280;50547;49.498;0.092;2022-10-16T07:06:13;1009;;;16.05;80.89
64230;BME280;50547;49.498;0.092;2022-10-16T07:08:44;1009;;;16.14;80.37
64230;BME280;50547;49.498;0.092;2022-10-16T07:11:15;1009;;;16.23;80.04
64230;BME280;50547;49.498;0.092;2022-10-16T07:13:45;1009;;;16.26;79.79
64230;BME280;50547;49.498;0.092;2022-10-16T07:16:16;1009;;;16.40;79.51
64230;BME280;50547;49.498;0.092;2022-10-16T07:18:46;1009;;;16.32;79.80
64230;BME280;50547;49.498;0.092;2022-10-16T07:21:17;1009;;;16.37;79.68
64230;BME280;50547;49.498;0.092;2022-10-16T07:23:50;1009;;;16.25;80.11
64230;BME280;50547;49.498;0.092;2022-10-16T07:26:19;1009;;;16.58;78.94
64230;BME280;50547;49.498;0.092;2022-10-16T07:28:49;1010;;;16.65;78.68
64230;BME280;50547;49.498;0.092;2022-10-16T07:31:19;1010;;;17.04;77.59
64230;BME280;50547;49.498;0.092;2022-10-16T07:33:49;1010;;;17.15;77.22
64230;BME280;50547;49.498;0.092;2022-10-16T07:36:20;1010;;;17.11;77.23
64230;BME280;50547;49.498;0.092;2022-10-16T07:39:35;1010;;;17.19;77.27
64230;BME280;50547;49.498;0.092;2022-10-16T07:42:04;1009;;;17.39;76.50
64230;BME280;50547;49.498;0.092;2022-10-16T07:44:32;1009;;;17.36;76.85
64230;BME280;50547;49.498;0.092;2022-10-16T07:47:01;1009;;;17.36;76.87
64230;BME280;50547;49.498;0.092;2022-10-16T07:49:30;1009;;;17.26;77.09
64230;BME280;50547;49.498;0.092;2022-10-16T07:51:59;1009;;;17.14;77.67
64230;BME280;50547;49.498;0.092;2022-10-16T07:54:28;1009;;;17.26;77.20
64230;BME280;50547;49.498;0.092;2022-10-16T07:56:57;1009;;;17.23;76.96
64230;BME280;50547;49.498;0.092;2022-10-16T07:59:35;1009;;;17.38;76.54
64230;BME280;50547;49.498;0.092;2022-10-16T08:02:04;1009;;;17.51;75.75
64230;BME280;50547;49.498;0.092;2022-10-16T08:04:33;1009;;;17.54;75.82
64230;BME280;50547;49.498;0.092;2022-10-16T08:07:02;1009;;;17.58;75.96
64230;BME280;50547;49.498;0.092;2022-10-16T08:09:31;1010;;;17.55;76.04
64230;BME280;50547;49.498;0.092;2022-10-16T08:12:00;1010;;;17.68;75.55
64230;BME280;50547;49.498;0.092;2022-10-16T08:14:42;1010;;;17.74;75.25
64230;BME280;50547;49.498;0.092;2022-10-16T08:17:14;1010;;;17.66;75.16
64230;BME280;50547;49.498;0.092;2022-10-16T08:19:44;1010;;;17.68;75.28
64230;BME280;50547;49.498;0.092;2022-10-16T08:22:14;1010;;;17.99;74.27
64230;BME280;50547;49.498;0.092;2022-10-16T08:24:43;1010;;;18.13;73.86
64230;BME280;50547;49.498;0.092;2022-10-16T08:27:12;1010;;;18.23;73.49
64230;BME280;50547;49.498;0.092;2022-10-16T08:29:41;1010;;;18.26;73.72
64230;BME280;50547;49.498;0.092;2022-10-16T08:32:10;1010;;;18.57;72.68
64230;BME280;50547;49.498;0.092;2022-10-16T08:34:39;1010;;;18.40;73.08
64230;BME280;50547;49.498;0.092;2022-10-16T08:37:08;1010;;;18.64;72.43
64230;BME280;50547;49.498;0.092;2022-10-16T08:39:37;1010;;;18.98;71.84
64230;BME280;50547;49.498;0.092;2022-10-16T08:42:15;1010;;;19.17;70.87
64230;BME280;50547;49.498;0.092;2022-10-16T08:45:34;1010;;;19.10;71.17
64230;BME280;50547;49.498;0.092;2022-10-16T08:48:14;1010;;;19.23;70.87
64230;BME280;50547;49.498;0.092;2022-10-16T08:50:45;1010;;;19.16;70.78
64230;BME280;50547;49.498;0.092;2022-10-16T08:53:18;1010;;;19.28;70.35
64230;BME280;50547;49.498;0.092;2022-10-16T08:55:51;1010;;;19.47;69.70
64230;BME280;50547;49.498;0.092;2022-10-16T08:58:22;1010;;;19.32;70.21
64230;BME280;50547;49.498;0.092;2022-10-16T09:00:55;1010;;;19.18;70.68
64230;BME280;50547;49.498;0.092;2022-10-16T09:03:33;1010;;;19.06;71.12
64230;BME280;50547;49.498;0.092;2022-10-16T09:06:21;1010;;;19.13;70.71
64230;BME280;50547;49.498;0.092;2022-10-16T09:09:04;1010;;;19.02;71.08
64230;BME280;50547;49.498;0.092;2022-10-16T09:11:43;1010;;;19.15;70.30
64230;BME280;50547;49.498;0.092;2022-10-16T09:14:28;1010;;;18.77;71.89
64230;BME280;50547;49.498;0.092;2022-10-16T09:17:11;1010;;;18.74;72.33
64230;BME280;50547;49.498;0.092;2022-10-16T09:19:48;1010;;;18.87;71.55
64230;BME280;50547;49.498;0.092;2022-10-16T09:22:21;1010;;;18.90;71.47
64230;BME280;50547;49.498;0.092;2022-10-16T09:24:55;1010;;;18.84;71.72
64230;BME280;50547;49.498;0.092;2022-10-16T09:27:28;1010;;;18.55;73.00
64230;BME280;50547;49.498;0.092;2022-10-16T09:29:57;1010;;;18.66;72.22
64230;BME280;50547;49.498;0.092;2022-10-16T09:32:28;1010;;;18.91;71.32
64230;BME280;50547;49.498;0.092;2022-10-16T09:34:57;1010;;;18.52;72.76
64230;BME280;50547;49.498;0.092;2022-10-16T09:37:26;1010;;;18.56;72.57
64230;BME280;50547;49.498;0.092;2022-10-16T09:39:55;1010;;;18.42;72.85
64230;BME280;50547;49.498;0.092;2022-10-16T09:42:28;1010;;;18.33;73.06
64230;BME280;50547;49.498;0.092;2022-10-16T09:45:00;1010;;;18.13;74.39
64230;BME280;50547;49.498;0.092;2022-10-16T09:47:31;1010;;;18.19;74.01
64230;BME280;50547;49.498;0.092;2022-10-16T09:50:03;1010;;;18.50;72.17
64230;BME280;50547;49.498;0.092;2022-10-16T09:52:33;1010;;;18.20;73.56
64230;BME280;50547;49.498;0.092;2022-10-16T09:55:13;1010;;;18.43;72.51
64230;BME280;50547;49.498;0.092;2022-10-16T09:57:48;1010;;;18.51;72.26
64230;BME280;50547;49.498;0.092;2022-10-16T10:01:03;1010;;;18.74;71.34
64230;BME280;50547;49.498;0.092;2022-10-16T10:03:35;1010;;;18.87;71.01
64230;BME280;50547;49.498;0.092;2022-10-16T10:06:16;1010;;;18.94;70.95
64230;BME280;50547;49.498;0.092;2022-10-16T10:08:56;1010;;;18.86;71.43
64230;BME280;50547;49.498;0.092;2022-10-16T10:11:59;1010;;;19.18;70.22
64230;BME280;50547;49.498;0.092;2022-10-16T10:14:31;1010;;;19.35;69.79
64230;BME280;50547;49.498;0.092;2022-10-16T10:17:12;1010;;;19.35;69.70
64230;BME280;50547;49.498;0.092;2022-10-16T10:19:46;1010;;;19.07;70.91
64230;BME280;50547;49.498;0.092;2022-10-16T10:22:25;1010;;;19.23;70.51
64230;BME280;50547;49.498;0.092;2022-10-16T10:24:59;1010;;;19.20;70.39
64230;BME280;50547;49.498;0.092;2022-10-16T10:27:37;1010;;;19.25;70.60
64230;BME280;50547;49.498;0.092;2022-10-16T10:30:13;1010;;;19.24;70.62
64230;BME280;50547;49.498;0.092;2022-10-16T10:32:46;1010;;;19.17;70.53
64230;BME280;50547;49.498;0.092;2022-10-16T10:35:22;1010;;;19.38;69.82
64230;BME280;50547;49.498;0.092;2022-10-16T10:38:09;1010;;;19.76;68.58
64230;BME280;50547;49.498;0.092;2022-10-16T10:40:50;1010;;;20.24;67.04
64230;BME280;50547;49.498;0.092;2022-10-16T10:43:30;1010;;;20.30;66.64
64230;BME280;50547;49.498;0.092;2022-10-16T10:46:05;1010;;;20.29;66.96
64230;BME280;50547;49.498;0.092;2022-10-16T10:48:49;1010;;;20.45;66.65
64230;BME280;50547;49.498;0.092;2022-10-16T10:51:25;1010;;;20.44;66.46
64230;BME280;50547;49.498;0.092;2022-10-16T10:54:07;1010;;;20.43;66.68
64230;BME280;50547;49.498;0.092;2022-10-16T10:56:46;1010;;;20.78;65.47
64230;BME280;50547;49.498;0.092;2022-10-16T11:00:02;1010;;;20.90;65.04
64230;BME280;50547;49.498;0.092;2022-10-16T11:02:38;1010;;;20.92;64.87
64230;BME280;50547;49.498;0.092;2022-10-16T11:05:43;1010;;;20.72;65.51
64230;BME280;50547;49.498;0.092;2022-10-16T11:08:18;1010;;;20.56;66.37
64230;BME280;50547;49.498;0.092;2022-10-16T11:10:52;1010;;;20.63;66.17
64230;BME280;50547;49.498;0.092;2022-10-16T11:13:28;1010;;;20.76;65.58
64230;BME280;50547;49.498;0.092;2022-10-16T11:16:03;1010;;;20.69;65.66
64230;BME280;50547;49.498;0.092;2022-10-16T11:18:43;1009;;;20.79;65.32
64230;BME280;50547;49.498;0.092;2022-10-16T11:21:16;1009;;;20.81;65.21
64230;BME280;50547;49.498;0.092;2022-10-16T11:23:48;1009;;;20.84;64.61
64230;BME280;50547;49.498;0.092;2022-10-16T11:26:23;1009;;;20.83;64.30
64230;BME280;50547;49.498;0.092;2022-10-16T11:28:54;1009;;;20.93;64.11
64230;BME280;50547;49.498;0.092;2022-10-16T11:31:29;1009;;;21.30;62.67
64230;BME280;50547;49.498;0.092;2022-10-16T11:34:04;1009;;;21.46;62.13
64230;BME280;50547;49.498;0.092;2022-10-16T11:36:39;1009;;;21.08;62.71
64230;BME280;50547;49.498;0.092;2022-10-16T11:39:19;1009;;;21.05;63.15
64230;BME280;50547;49.498;0.092;2022-10-16T11:41:51;1009;;;21.01;63.01
64230;BME280;50547;49.498;0.092;2022-10-16T11:44:36;1009;;;20.94;62.85
64230;BME280;50547;49.498;0.092;2022-10-16T11:47:14;1009;;;20.92;63.25
64230;BME280;50547;49.498;0.092;2022-10-16T11:49:50;1009;;;20.97;63.05
64230;BME280;50547;49.498;0.092;2022-10-16T11:52:28;1009;;;20.87;63.83
64230;BME280;50547;49.498;0.092;2022-10-16T11:55:03;1009;;;20.59;64.97
64230;BME280;50547;49.498;0.092;2022-10-16T11:57:39;1009;;;20.69;64.87
64230;BME280;50547;49.498;0.092;2022-10-16T12:00:14;1009;;;20.68;64.90
64230;BME280;50547;49.498;0.092;2022-10-16T12:02:55;1009;;;20.75;64.93
64230;BME280;50547;49.498;0.092;2022-10-16T12:05:35;1009;;;20.85;64.77
64230;BME280;50547;49.498;0.092;2022-10-16T12:08:10;1009;;;20.91;64.37
64230;BME280;50547;49.498;0.092;2022-10-16T12:10:41;1009;;;20.67;65.40
64230;BME280;50547;49.498;0.092;2022-10-16T12:13:30;1009;;;20.71;65.64
64230;BME280;50547;49.498;0.092;2022-10-16T12:16:20;1009;;;20.69;65.72
64230;BME280;50547;49.498;0.092;2022-10-16T12:19:07;1010;;;20.92;64.77
64230;BME280;50547;49.498;0.092;2022-10-16T12:21:38;1009;;;20.87;65.26
64230;BME280;50547;49.498;0.092;2022-10-16T12:24:20;1009;;;21.05;64.81
64230;BME280;50547;49.498;0.092;2022-10-16T12:26:52;1009;;;21.05;63.94
64230;BME280;50547;49.498;0.092;2022-10-16T12:29:31;1009;;;20.91;64.31
64230;BME280;50547;49.498;0.092;2022-10-16T12:32:03;1009;;;20.88;64.41
64230;BME280;50547;49.498;0.092;2022-10-16T12:34:39;1009;;;20.66;64.83
64230;BME280;50547;49.498;0.092;2022-10-16T12:37:14;1009;;;20.52;65.05
64230;BME280;50547;49.498;0.092;2022-10-16T12:39:44;1009;;;20.27;65.73
64230;BME280;50547;49.498;0.092;2022-10-16T12:42:24;1009;;;20.23;65.87
64230;BME280;50547;49.498;0.092;2022-10-16T12:45:00;1009;;;20.16;66.28
64230;BME280;50547;49.498;0.092;2022-10-16T12:47:47;1009;;;20.18;66.14
64230;BME280;50547;49.498;0.092;2022-10-16T12:50:26;1009;;;20.21;65.84
64230;BME280;50547;49.498;0.092;2022-10-16T12:52:55;1009;;;20.17;65.85
64230;BME280;50547;49.498;0.092;2022-10-16T12:55:35;1009;;;20.09;65.89
64230;BME280;50547;49.498;0.092;2022-10-16T12:58:22;1009;;;20.11;66.01
64230;BME280;50547;49.498;0.092;2022-10-16T13:01:37;1009;;;20.18;65.71
64230;BME280;50547;49.498;0.092;2022-10-16T13:05:12;1009;;;19.85;66.62
64230;BME280;50547;49.498;0.092;2022-10-16T13:07:58;1009;;;19.67;67.37
64230;BME280;50547;49.498;0.092;2022-10-16T13:10:37;1009;;;19.69;67.38
64230;BME280;50547;49.498;0.092;2022-10-16T13:13:24;1009;;;19.57;67.96
64230;BME280;50547;49.498;0.092;2022-10-16T13:16:12;1009;;;19.58;68.04
64230;BME280;50547;49.498;0.092;2022-10-16T13:18:53;1009;;;19.56;68.49
64230;BME280;50547;49.498;0.092;2022-10-16T13:21:32;1009;;;19.59;68.45
64230;BME280;50547;49.498;0.092;2022-10-16T13:24:13;1009;;;19.52;69.13
64230;BME280;50547;49.498;0.092;2022-10-16T13:26:50;1009;;;19.33;70.41
64230;BME280;50547;49.498;0.092;2022-10-16T13:29:22;1009;;;19.28;70.80
64230;BME280;50547;49.498;0.092;2022-10-16T13:31:52;1009;;;19.28;71.07
64230;BME280;50547;49.498;0.092;2022-10-16T13:34:22;1009;;;19.13;72.34
64230;BME280;50547;49.498;0.092;2022-10-16T13:37:18;1009;;;19.00;73.39
64230;BME280;50547;49.498;0.092;2022-10-16T13:39:48;1009;;;19.00;73.44
64230;BME280;50547;49.498;0.092;2022-10-16T13:42:26;1009;;;18.76;74.85
64230;BME280;50547;49.498;0.092;2022-10-16T13:44:55;1009;;;18.59;75.93
64230;BME280;50547;49.498;0.092;2022-10-16T13:47:23;1009;;;18.50;76.73
64230;BME280;50547;49.498;0.092;2022-10-16T13:50:00;1009;;;18.46;76.97
64230;BME280;50547;49.498;0.092;2022-10-16T13:52:30;1009;;;18.43;77.26
64230;BME280;50547;49.498;0.092;2022-10-16T13:54:59;1009;;;18.35;77.71
64230;BME280;50547;49.498;0.092;2022-10-16T13:57:32;1009;;;18.21;78.43
64230;BME280;50547;49.498;0.092;2022-10-16T13:59:59;1009;;;18.15;78.92
64230;BME280;50547;49.498;0.092;2022-10-16T14:02:31;1009;;;18.19;78.53
64230;BME280;50547;49.498;0.092;2022-10-16T14:05:04;1009;;;18.06;79.11
64230;BME280;50547;49.498;0.092;2022-10-16T14:07:37;1009;;;18.12;79.03
64230;BME280;50547;49.498;0.092;2022-10-16T14:10:06;1009;;;18.07;79.38
64230;BME280;50547;49.498;0.092;2022-10-16T14:12:36;1009;;;17.88;80.69
64230;BME280;50547;49.498;0.092;2022-10-16T14:15:15;1008;;;17.93;80.49
64230;BME280;50547;49.498;0.092;2022-10-16T14:17:49;1008;;;17.79;81.19
64230;BME280;50547;49.498;0.092;2022-10-16T14:20:21;1008;;;17.78;80.81